createdAt,value
2023-01-26T00:02:27.093Z,7.82
2023-01-26T00:04:55.343Z,7.66
2023-01-26T00:07:23.637Z,7.97
2023-01-26T00:09:51.880Z,7.97
2023-01-26T00:12:21.567Z,7.97
2023-01-26T00:14:52.849Z,7.88
2023-01-26T00:17:27.571Z,7.40
2023-01-26T00:19:57.941Z,7.22
2023-01-26T00:22:27.317Z,6.48
2023-01-26T00:24:55.582Z,7.05
2023-01-26T00:27:25.216Z,6.77
2023-01-26T00:29:53.597Z,6.87
2023-01-26T00:32:21.859Z,6.74
2023-01-26T00:34:50.175Z,6.47
2023-01-26T00:37:18.488Z,6.55
2023-01-26T00:39:46.735Z,6.89
2023-01-26T00:42:15.988Z,6.81
2023-01-26T00:44:45.695Z,6.48
2023-01-26T00:47:15.056Z,6.49
2023-01-26T00:49:43.298Z,6.19
2023-01-26T00:52:12.148Z,5.70
2023-01-26T00:54:40.533Z,6.44
2023-01-26T00:57:08.870Z,6.28
2023-01-26T00:59:37.102Z,7.10
2023-01-26T01:02:06.854Z,6.29
2023-01-26T01:04:35.685Z,6.26
2023-01-26T01:07:04.117Z,5.99
2023-01-26T01:09:32.368Z,6.55
2023-01-26T01:12:00.677Z,6.57
2023-01-26T01:14:29.004Z,6.11
2023-01-26T01:16:57.615Z,5.87
2023-01-26T01:19:27.468Z,5.94
2023-01-26T01:21:55.724Z,6.27
2023-01-26T01:24:24.080Z,6.32
2023-01-26T01:26:52.348Z,6.18
2023-01-26T01:29:20.637Z,6.56
2023-01-26T01:31:48.960Z,6.17
2023-01-26T01:34:17.871Z,6.53
2023-01-26T01:36:47.470Z,7.24
2023-01-26T01:41:43.074Z,7.48
2023-01-26T01:44:19.663Z,7.09
2023-01-26T01:46:51.054Z,6.96
2023-01-26T01:49:21.758Z,7.29
2023-01-26T01:51:55.113Z,6.95
2023-01-26T01:54:28.826Z,6.47
2023-01-26T01:56:59.412Z,6.78
2023-01-26T01:59:27.515Z,6.71
2023-01-26T02:01:57.048Z,6.57
2023-01-26T02:04:25.773Z,6.89
2023-01-26T02:06:58.365Z,6.40
2023-01-26T02:09:44.464Z,6.21
2023-01-26T02:12:14.423Z,6.10
2023-01-26T02:14:42.906Z,6.58
2023-01-26T02:17:11.432Z,5.94
2023-01-26T02:19:46.885Z,5.94
2023-01-26T02:22:21.495Z,5.72
2023-01-26T02:24:49.992Z,5.88
2023-01-26T02:27:19.671Z,6.03
2023-01-26T02:29:47.909Z,6.24
2023-01-26T02:32:16.153Z,5.47
2023-01-26T02:34:44.480Z,5.88
2023-01-26T02:37:15.560Z,5.67
2023-01-26T02:39:48.674Z,6.00
2023-01-26T02:42:34.620Z,5.71
2023-01-26T02:45:04.606Z,6.10
2023-01-26T02:47:32.993Z,5.67
2023-01-26T02:50:00.697Z,5.75
2023-01-26T02:52:30.947Z,6.68
2023-01-26T02:55:16.922Z,6.28
2023-01-26T02:57:45.405Z,6.51
2023-01-26T03:00:18.375Z,6.20
2023-01-26T03:02:47.660Z,6.58
2023-01-26T03:05:16.616Z,6.23
2023-01-26T03:07:44.939Z,7.01
2023-01-26T03:10:13.957Z,6.32
2023-01-26T03:12:42.254Z,6.96
2023-01-26T03:15:29.170Z,6.62
2023-01-26T03:18:23.030Z,7.21
2023-01-26T03:21:05.244Z,7.09
2023-01-26T03:23:51.150Z,7.21
2023-01-26T03:26:37.177Z,6.38
2023-01-26T03:29:05.490Z,6.45
2023-01-26T03:31:33.787Z,6.42
2023-01-26T03:34:03.513Z,6.12
2023-01-26T03:36:31.878Z,5.95
2023-01-26T03:39:00.110Z,6.60
2023-01-26T03:41:45.976Z,6.64
2023-01-26T03:44:31.936Z,6.92
2023-01-26T03:47:17.774Z,6.15
2023-01-26T03:50:05.066Z,5.81
2023-01-26T03:52:51.162Z,5.67
2023-01-26T03:55:36.978Z,5.75
2023-01-26T03:58:05.247Z,6.86
2023-01-26T04:00:33.470Z,7.01
2023-01-26T04:03:19.552Z,6.79
2023-01-26T04:06:15.682Z,6.71
2023-01-26T04:08:45.348Z,5.26
2023-01-26T04:11:13.923Z,5.34
2023-01-26T04:14:00.028Z,5.43
2023-01-26T04:16:46.046Z,5.87
2023-01-26T04:19:31.942Z,6.45
2023-01-26T04:22:01.697Z,6.46
2023-01-26T04:24:29.950Z,6.31
2023-01-26T04:26:58.172Z,6.44
2023-01-26T04:29:26.484Z,6.05
2023-01-26T04:31:54.767Z,5.93
2023-01-26T04:34:23.042Z,6.44
2023-01-26T04:36:51.279Z,6.65
2023-01-26T04:39:21.043Z,5.75
2023-01-26T04:41:49.304Z,6.39
2023-01-26T04:44:17.852Z,7.14
2023-01-26T04:46:47.210Z,6.90
2023-01-26T04:49:15.737Z,7.04
2023-01-26T04:51:44.074Z,6.80
2023-01-26T04:54:12.387Z,7.32
2023-01-26T04:56:42.823Z,7.33
2023-01-26T04:59:12.377Z,7.65
2023-01-26T05:01:43.253Z,6.90
2023-01-26T05:04:12.792Z,7.48
2023-01-26T05:06:42.137Z,7.52
2023-01-26T05:09:10.616Z,7.16
2023-01-26T05:11:38.882Z,7.90
2023-01-26T05:14:08.549Z,8.03
2023-01-26T05:16:36.920Z,7.89
2023-01-26T05:19:05.183Z,6.98
2023-01-26T05:21:33.464Z,6.89
2023-01-26T05:24:01.764Z,7.63
2023-01-26T05:26:30.038Z,7.57
2023-01-26T05:28:58.291Z,6.91
2023-01-26T05:31:28.041Z,7.14
2023-01-26T05:33:56.363Z,7.51
2023-01-26T05:36:24.634Z,7.19
2023-01-26T05:38:52.884Z,7.35
2023-01-26T05:41:21.193Z,7.35
2023-01-26T05:43:49.451Z,7.23
2023-01-26T05:46:17.716Z,7.22
2023-01-26T05:48:47.308Z,6.30
2023-01-26T05:51:15.604Z,6.43
2023-01-26T05:53:43.830Z,5.92
2023-01-26T05:56:12.169Z,6.01
2023-01-26T05:58:40.415Z,5.93
2023-01-26T06:01:08.983Z,5.83
2023-01-26T06:03:37.276Z,6.59
2023-01-26T06:06:07.407Z,6.44
2023-01-26T06:08:35.658Z,6.51
2023-01-26T06:11:03.881Z,6.52
2023-01-26T06:13:32.191Z,6.25
2023-01-26T06:16:01.710Z,6.30
2023-01-26T06:18:30.051Z,5.80
2023-01-26T06:21:00.180Z,6.10
2023-01-26T06:23:29.923Z,5.60
2023-01-26T06:25:59.923Z,6.49
2023-01-26T06:28:28.675Z,6.17
2023-01-26T06:31:00.800Z,5.64
2023-01-26T06:33:29.166Z,6.24
2023-01-26T06:35:57.511Z,6.73
2023-01-26T06:38:25.774Z,6.07
2023-01-26T06:40:55.665Z,6.66
2023-01-26T06:43:23.995Z,6.25
2023-01-26T06:45:52.262Z,6.94
2023-01-26T06:48:20.528Z,6.67
2023-01-26T06:50:48.789Z,6.52
2023-01-26T06:53:30.713Z,7.14
2023-01-26T06:56:00.405Z,7.26
2023-01-26T06:58:28.643Z,7.64
2023-01-26T07:00:57.905Z,7.36
2023-01-26T07:03:26.241Z,7.32
2023-01-26T07:05:54.541Z,7.13
2023-01-26T07:08:22.767Z,7.25
2023-01-26T07:10:51.398Z,7.29
2023-01-26T07:13:21.020Z,7.06
2023-01-26T07:15:49.289Z,6.53
2023-01-26T07:18:17.518Z,6.73
2023-01-26T07:20:45.785Z,7.23
2023-01-26T07:23:13.996Z,7.60
2023-01-26T07:25:44.439Z,7.44
2023-01-26T07:28:12.811Z,6.63
2023-01-26T07:30:42.443Z,7.19
2023-01-26T07:33:10.759Z,6.48
2023-01-26T07:35:39.023Z,7.37
2023-01-26T07:38:07.355Z,6.69
2023-01-26T07:40:35.612Z,7.13
2023-01-26T07:43:03.940Z,7.44
2023-01-26T07:45:32.235Z,7.45
2023-01-26T07:48:01.860Z,7.87
2023-01-26T07:50:30.263Z,7.73
2023-01-26T07:53:01.282Z,7.11
2023-01-26T07:55:29.626Z,8.01
2023-01-26T07:57:59.385Z,7.87
2023-01-26T08:00:27.910Z,7.68
2023-01-26T08:02:56.173Z,7.54
2023-01-26T08:05:25.923Z,7.85
2023-01-26T08:07:54.181Z,7.72
2023-01-26T08:10:22.467Z,7.54
2023-01-26T08:12:51.075Z,7.57
2023-01-26T08:15:19.340Z,6.85
2023-01-26T08:17:47.723Z,6.79
2023-01-26T08:20:16.077Z,6.78
2023-01-26T08:22:45.706Z,7.05
2023-01-26T08:25:14.529Z,5.97
2023-01-26T08:27:42.807Z,6.36
2023-01-26T08:30:12.694Z,6.78
2023-01-26T08:32:41.231Z,6.33
2023-01-26T08:35:10.253Z,6.80
2023-01-26T08:37:38.918Z,7.22
2023-01-26T08:40:10.603Z,7.21
2023-01-26T08:42:39.178Z,7.36
2023-01-26T08:45:08.335Z,7.02
2023-01-26T08:47:36.641Z,7.87
2023-01-26T08:50:05.353Z,8.17
2023-01-26T08:52:33.598Z,8.24
2023-01-26T08:55:02.183Z,8.13
2023-01-26T08:57:31.792Z,7.67
2023-01-26T09:00:00.020Z,7.83
2023-01-26T09:02:28.904Z,7.92
2023-01-26T09:04:57.198Z,8.13
2023-01-26T09:07:26.560Z,8.33
2023-01-26T09:09:54.861Z,8.23
2023-01-26T09:12:23.111Z,7.91
2023-01-26T09:14:52.698Z,8.12
2023-01-26T09:17:20.964Z,8.13
2023-01-26T09:19:49.369Z,7.82
2023-01-26T09:22:17.648Z,7.83
2023-01-26T09:24:45.972Z,8.05
2023-01-26T09:27:14.236Z,8.16
2023-01-26T09:29:42.507Z,8.34
2023-01-26T09:32:12.199Z,8.44
2023-01-26T09:34:40.426Z,8.31
2023-01-26T09:37:08.967Z,8.29
2023-01-26T09:39:37.245Z,7.81
2023-01-26T09:42:27.817Z,7.61
2023-01-26T09:45:04.283Z,7.46
2023-01-26T09:47:42.173Z,7.89
2023-01-26T09:50:14.666Z,7.95
2023-01-26T09:52:49.688Z,7.67
2023-01-26T09:55:21.256Z,7.78
2023-01-26T09:57:51.515Z,7.71
2023-01-26T10:00:23.341Z,8.13
2023-01-26T10:03:02.204Z,8.35
2023-01-26T10:05:34.848Z,8.63
2023-01-26T10:08:05.338Z,7.63
2023-01-26T10:10:37.215Z,7.73
2023-01-26T10:13:05.611Z,7.87
2023-01-26T10:15:39.002Z,7.87
2023-01-26T10:18:13.726Z,7.77
2023-01-26T10:20:45.322Z,8.14
2023-01-26T10:23:17.110Z,8.49
2023-01-26T10:25:46.992Z,7.72
2023-01-26T10:28:16.909Z,7.45
2023-01-26T10:30:47.219Z,7.89
2023-01-26T10:33:27.820Z,8.09
2023-01-26T10:35:56.339Z,7.90
2023-01-26T10:38:28.924Z,7.51
2023-01-26T10:40:58.464Z,7.97
2023-01-26T10:43:27.080Z,8.09
2023-01-26T10:45:55.411Z,8.12
2023-01-26T10:48:26.827Z,7.55
2023-01-26T10:50:56.292Z,7.76
2023-01-26T10:53:26.357Z,7.92
2023-01-26T10:56:02.612Z,8.04
2023-01-26T10:58:43.331Z,8.04
2023-01-26T11:01:12.483Z,8.61
2023-01-26T11:03:42.739Z,8.33
2023-01-26T11:06:16.014Z,8.19
2023-01-26T11:08:44.563Z,8.17
2023-01-26T11:11:26.185Z,8.19
2023-01-26T11:14:13.825Z,8.12
2023-01-26T11:16:43.383Z,8.15
2023-01-26T11:19:15.364Z,8.17
2023-01-26T11:21:48.031Z,8.11
2023-01-26T11:24:21.243Z,7.83
2023-01-26T11:27:21.652Z,7.78
2023-01-26T11:30:31.128Z,7.67
2023-01-26T11:33:03.432Z,7.61
2023-01-26T11:35:40.986Z,7.96
2023-01-26T11:38:22.403Z,7.68
2023-01-26T11:40:57.135Z,8.12
2023-01-26T11:43:52.160Z,7.87
2023-01-26T11:46:34.137Z,7.71
2023-01-26T11:49:12.688Z,7.23
2023-01-26T11:51:53.096Z,6.94
2023-01-26T11:54:34.305Z,7.00
2023-01-26T11:57:08.860Z,6.83
2023-01-26T11:59:40.181Z,6.46
2023-01-26T12:02:24.226Z,7.33
2023-01-26T12:04:55.829Z,7.12
2023-01-26T12:07:30.055Z,7.27
2023-01-26T12:10:00.136Z,7.06
2023-01-26T12:12:34.949Z,7.44
2023-01-26T12:15:06.847Z,6.97
2023-01-26T12:17:45.784Z,6.75
2023-01-26T12:20:25.128Z,6.31
2023-01-26T12:22:56.642Z,6.16
2023-01-26T12:25:29.926Z,6.61
2023-01-26T12:28:04.031Z,6.27
2023-01-26T12:30:36.769Z,6.53
2023-01-26T12:33:05.442Z,7.43
2023-01-26T12:35:50.253Z,7.41
2023-01-26T12:38:23.124Z,7.19
2023-01-26T12:41:03.854Z,7.49
2023-01-26T12:43:44.174Z,7.30
2023-01-26T12:46:13.898Z,7.87
2023-01-26T12:48:45.976Z,8.04
2023-01-26T12:51:19.281Z,8.15
2023-01-26T12:53:55.278Z,7.84
2023-01-26T12:56:27.152Z,7.98
2023-01-26T12:58:56.965Z,8.01
2023-01-26T13:01:26.818Z,8.23
2023-01-26T13:03:56.925Z,7.99
2023-01-26T13:06:26.407Z,8.36
2023-01-26T13:09:04.660Z,8.00
2023-01-26T13:11:50.092Z,7.87
2023-01-26T13:14:26.749Z,7.62
2023-01-26T13:16:55.340Z,7.10
2023-01-26T13:19:37.072Z,7.46
2023-01-26T13:22:05.385Z,7.22
2023-01-26T13:24:45.084Z,6.96
2023-01-26T13:27:35.340Z,7.14
2023-01-26T13:30:04.017Z,6.76
2023-01-26T13:33:02.825Z,7.14
2023-01-26T13:35:32.902Z,6.77
2023-01-26T13:38:07.155Z,6.80
2023-01-26T13:40:38.258Z,7.03
2023-01-26T13:43:25.318Z,7.10
2023-01-26T13:46:07.070Z,6.64
2023-01-26T13:48:42.477Z,7.07
2023-01-26T13:51:14.940Z,6.09
2023-01-26T13:53:45.829Z,6.29
2023-01-26T13:56:30.037Z,6.55
2023-01-26T13:59:06.494Z,6.46
2023-01-26T14:01:35.267Z,6.96
2023-01-26T14:04:05.156Z,7.57
2023-01-26T14:06:34.527Z,7.84
2023-01-26T14:09:04.483Z,7.47
2023-01-26T14:11:34.610Z,6.95
2023-01-26T14:14:03.740Z,6.66
2023-01-26T14:16:33.391Z,6.66
2023-01-26T14:19:07.326Z,6.98
2023-01-26T14:21:46.551Z,6.57
2023-01-26T14:24:15.147Z,6.97
2023-01-26T14:26:45.018Z,7.19
2023-01-26T14:29:16.923Z,7.29
2023-01-26T14:31:45.314Z,6.89
2023-01-26T14:34:20.051Z,7.56
2023-01-26T14:36:48.404Z,8.01
2023-01-26T14:39:18.927Z,7.63
2023-01-26T14:41:48.900Z,8.10
2023-01-26T14:44:17.196Z,7.33
2023-01-26T14:46:52.486Z,8.16
2023-01-26T14:49:23.886Z,8.36
2023-01-26T14:51:56.490Z,8.58
2023-01-26T14:54:28.319Z,8.62
2023-01-26T14:56:59.144Z,7.72
2023-01-26T14:59:33.736Z,7.84
2023-01-26T15:02:15.212Z,8.04
2023-01-26T15:04:47.142Z,8.22
2023-01-26T15:07:34.070Z,8.14
2023-01-26T15:10:03.751Z,8.14
2023-01-26T15:12:36.231Z,7.51
2023-01-26T15:15:12.388Z,7.91
2023-01-26T15:17:41.699Z,8.07
2023-01-26T15:20:27.697Z,8.27
2023-01-26T15:22:56.043Z,8.02
2023-01-26T15:25:26.263Z,7.96
2023-01-26T15:27:58.905Z,7.99
2023-01-26T15:30:28.811Z,8.04
2023-01-26T15:32:57.703Z,7.62
2023-01-26T15:35:27.852Z,8.07
2023-01-26T15:38:03.632Z,7.93
2023-01-26T15:40:32.712Z,8.33
2023-01-26T15:43:14.221Z,8.27
2023-01-26T15:45:44.525Z,7.85
2023-01-26T15:48:12.798Z,8.03
2023-01-26T15:50:41.070Z,8.08
2023-01-26T15:53:14.344Z,7.89
2023-01-26T15:55:43.823Z,7.76
2023-01-26T15:58:12.173Z,7.79
2023-01-26T16:00:41.919Z,7.78
2023-01-26T16:03:13.830Z,7.73
2023-01-26T16:05:42.222Z,7.85
2023-01-26T16:08:10.694Z,7.85
2023-01-26T16:10:39.004Z,7.63
2023-01-26T16:13:10.742Z,7.20
2023-01-26T16:15:43.350Z,6.62
2023-01-26T16:18:12.096Z,7.20
2023-01-26T16:20:42.130Z,6.93
2023-01-26T16:23:17.930Z,7.21
2023-01-26T16:25:46.849Z,6.38
2023-01-26T16:28:15.347Z,6.35
2023-01-26T16:30:46.081Z,6.92
2023-01-26T16:33:16.096Z,7.28
2023-01-26T16:35:44.833Z,7.00
2023-01-26T16:38:13.742Z,7.16
2023-01-26T16:40:42.873Z,6.51
2023-01-26T16:43:16.819Z,6.38
2023-01-26T16:45:46.789Z,6.51
2023-01-26T16:48:17.179Z,6.72
2023-01-26T16:50:46.295Z,6.98
2023-01-26T16:53:20.052Z,6.54
2023-01-26T16:55:48.387Z,6.11
2023-01-26T16:58:17.086Z,6.17
2023-01-26T17:00:46.988Z,6.45
2023-01-26T17:03:15.484Z,6.22
2023-01-26T17:05:43.809Z,6.70
2023-01-26T17:08:12.283Z,7.00
2023-01-26T17:11:00.732Z,7.50
2023-01-26T17:13:30.521Z,7.62
2023-01-26T17:16:00.312Z,7.71
2023-01-26T17:18:28.595Z,7.71
2023-01-26T17:21:03.148Z,7.60
2023-01-26T17:23:32.143Z,7.64
2023-01-26T17:26:00.580Z,7.75
2023-01-26T17:28:28.974Z,7.76
2023-01-26T17:31:00.064Z,8.01
2023-01-26T17:33:31.063Z,7.67
2023-01-26T17:36:02.764Z,7.69
2023-01-26T17:38:31.224Z,7.41
2023-01-26T17:41:00.224Z,7.27
2023-01-26T17:43:28.626Z,7.27
2023-01-26T17:46:03.548Z,7.32
2023-01-26T17:48:33.686Z,7.02
2023-01-26T17:51:01.996Z,7.31
2023-01-26T17:53:30.310Z,7.66
2023-01-26T17:55:58.586Z,7.79
2023-01-26T17:58:26.803Z,7.11
2023-01-26T18:00:55.022Z,6.71
2023-01-26T18:03:26.359Z,7.63
2023-01-26T18:05:56.874Z,7.80
2023-01-26T18:08:25.635Z,7.66
2023-01-26T18:10:59.359Z,7.80
2023-01-26T18:13:27.785Z,7.85
2023-01-26T18:15:56.424Z,7.72
2023-01-26T18:18:25.457Z,7.49
2023-01-26T18:20:53.945Z,7.49
2023-01-26T18:23:24.486Z,8.05
2023-01-26T18:25:52.754Z,8.29
2023-01-26T18:28:20.995Z,7.87
2023-01-26T18:30:49.519Z,7.82
2023-01-26T18:33:17.777Z,7.69
2023-01-26T18:35:46.045Z,7.43
2023-01-26T18:38:14.536Z,6.94
2023-01-26T18:40:44.174Z,7.18
2023-01-26T18:43:12.457Z,7.61
2023-01-26T18:45:42.715Z,6.98
2023-01-26T18:48:10.992Z,7.50
2023-01-26T18:50:39.412Z,7.60
2023-01-26T18:53:07.641Z,7.66
2023-01-26T18:55:35.914Z,7.38
2023-01-26T18:58:05.535Z,7.58
2023-01-26T19:00:34.455Z,7.54
2023-01-26T19:03:02.707Z,7.81
2023-01-26T19:05:31.470Z,7.80
2023-01-26T19:08:09.990Z,8.24
2023-01-26T19:10:39.187Z,8.24
2023-01-26T19:13:09.198Z,7.96
2023-01-26T19:15:37.859Z,7.75
2023-01-26T19:18:06.318Z,8.43
2023-01-26T19:20:34.649Z,8.45
2023-01-26T19:23:03.992Z,7.99
2023-01-26T19:25:32.787Z,8.33
2023-01-26T19:28:01.119Z,8.40
2023-01-26T19:30:30.878Z,8.35
2023-01-26T19:33:16.885Z,8.26
2023-01-26T19:35:45.156Z,8.16
2023-01-26T19:38:13.492Z,8.07
2023-01-26T19:40:41.831Z,7.53
2023-01-26T19:43:10.124Z,7.70
2023-01-26T19:45:40.114Z,7.41
2023-01-26T19:48:08.682Z,7.40
2023-01-26T19:50:37.025Z,7.39
2023-01-26T19:53:07.587Z,7.86
2023-01-26T19:55:36.030Z,8.00
2023-01-26T19:58:04.316Z,8.10
2023-01-26T20:00:32.658Z,8.04
2023-01-26T20:03:02.296Z,7.30
2023-01-26T20:05:30.597Z,7.73
2023-01-26T20:07:58.873Z,7.58
2023-01-26T20:10:27.236Z,7.57
2023-01-26T20:12:57.321Z,7.97
2023-01-26T20:15:25.744Z,6.60
2023-01-26T20:17:54.048Z,6.51
2023-01-26T20:20:24.606Z,6.98
2023-01-26T20:22:52.912Z,6.74
2023-01-26T20:25:21.269Z,7.13
2023-01-26T20:27:50.046Z,6.95
2023-01-26T20:30:18.884Z,6.88
2023-01-26T20:32:47.205Z,7.04
2023-01-26T20:35:15.838Z,6.81
2023-01-26T20:37:45.749Z,7.37
2023-01-26T20:40:14.717Z,6.77
2023-01-26T20:42:43.251Z,7.17
2023-01-26T20:45:12.220Z,6.97
2023-01-26T20:47:41.043Z,6.99
2023-01-26T20:50:10.315Z,7.17
2023-01-26T20:52:39.191Z,6.75
2023-01-26T20:55:11.762Z,6.88
2023-01-26T20:57:40.117Z,6.80
2023-01-26T21:00:10.283Z,6.68
2023-01-26T21:02:38.902Z,6.74
2023-01-26T21:05:08.586Z,6.94
2023-01-26T21:07:36.913Z,6.59
2023-01-26T21:10:05.809Z,6.76
2023-01-26T21:12:38.311Z,6.56
2023-01-26T21:15:07.900Z,6.80
2023-01-26T21:17:36.299Z,6.86
2023-01-26T21:20:05.388Z,7.08
2023-01-26T21:22:33.684Z,6.96
2023-01-26T21:25:02.118Z,7.35
2023-01-26T21:27:30.448Z,7.06
2023-01-26T21:30:00.150Z,7.01
2023-01-26T21:32:28.393Z,7.18
2023-01-26T21:34:56.705Z,7.34
2023-01-26T21:37:25.103Z,7.41
2023-01-26T21:39:53.405Z,7.00
2023-01-26T21:42:21.712Z,6.55
2023-01-26T21:45:07.386Z,6.54
2023-01-26T21:47:37.108Z,6.53
2023-01-26T21:50:06.022Z,6.79
2023-01-26T21:52:51.500Z,6.52
2023-01-26T21:55:19.777Z,6.71
2023-01-26T21:58:05.636Z,6.38
2023-01-26T22:00:33.903Z,6.57
2023-01-26T22:03:03.586Z,6.72
2023-01-26T22:05:31.913Z,6.26
2023-01-26T22:08:00.303Z,6.76
2023-01-26T22:10:28.649Z,6.79
2023-01-26T22:12:56.941Z,6.80
2023-01-26T22:15:25.187Z,6.96
2023-01-26T22:17:53.573Z,6.49
2023-01-26T22:20:23.242Z,6.83
2023-01-26T22:22:51.575Z,7.03
2023-01-26T22:25:20.282Z,6.92
2023-01-26T22:27:48.636Z,7.27
2023-01-26T22:30:17.238Z,7.00
2023-01-26T22:32:45.522Z,6.97
2023-01-26T22:35:13.819Z,6.93
2023-01-26T22:37:43.541Z,6.90
2023-01-26T22:40:14.007Z,7.02
2023-01-26T22:42:42.411Z,6.71
2023-01-26T22:45:11.619Z,7.23
2023-01-26T22:47:41.164Z,7.30
2023-01-26T22:50:11.725Z,7.14
2023-01-26T22:52:40.155Z,7.04
2023-01-26T22:55:10.786Z,7.21
2023-01-26T22:57:38.874Z,6.88
2023-01-26T23:00:08.638Z,6.84
2023-01-26T23:02:36.977Z,7.33
2023-01-26T23:05:05.756Z,7.05
2023-01-26T23:07:34.069Z,6.94
2023-01-26T23:10:02.467Z,7.07
2023-01-26T23:12:32.180Z,6.88
2023-01-26T23:15:00.495Z,7.10
2023-01-26T23:17:28.804Z,6.71
2023-01-26T23:19:57.055Z,7.04
2023-01-26T23:22:25.402Z,6.87
2023-01-26T23:25:07.574Z,7.39
2023-01-26T23:27:37.211Z,7.44
2023-01-26T23:30:06.435Z,7.40
2023-01-26T23:32:34.681Z,7.44
2023-01-26T23:35:02.942Z,7.49
2023-01-26T23:37:31.211Z,7.31
2023-01-26T23:39:59.475Z,7.33
2023-01-26T23:42:27.748Z,7.52
2023-01-26T23:44:57.359Z,7.18
2023-01-26T23:47:25.718Z,7.25
2023-01-26T23:49:54.001Z,7.15
2023-01-26T23:52:22.281Z,7.41
2023-01-26T23:54:50.548Z,7.45
2023-01-26T23:57:18.820Z,7.52
2023-01-26T23:59:47.041Z,7.30
